createdAt,value
2023-04-18T07:18:37.175Z,15.10
2023-04-18T07:21:07.699Z,13.18
2023-04-18T07:23:35.270Z,13.68
2023-04-18T07:30:57.842Z,15.07
2023-04-18T07:33:25.179Z,13.38
2023-04-18T07:35:53.142Z,13.80
2023-04-18T07:38:20.665Z,13.05
2023-04-18T07:40:47.982Z,12.70
2023-04-18T07:43:15.229Z,13.13
2023-04-18T07:45:43.453Z,12.75
2023-04-18T07:48:11.372Z,12.20
2023-04-18T07:50:38.765Z,12.13
2023-04-18T07:53:06.283Z,11.27
2023-04-18T07:55:33.520Z,11.55
2023-04-18T07:58:00.763Z,12.30
2023-04-18T08:00:28.819Z,11.95
2023-04-18T08:02:56.598Z,10.82
2023-04-18T08:05:24.109Z,11.45
2023-04-18T08:07:51.410Z,10.32
2023-04-18T08:10:18.649Z,10.82
2023-04-18T08:12:45.945Z,8.93
2023-04-18T08:15:13.289Z,8.95
2023-04-18T08:17:42.686Z,8.27
2023-04-18T08:20:10.000Z,9.65
2023-04-18T08:22:46.827Z,9.20
2023-04-18T08:25:24.474Z,9.75
2023-04-18T08:27:52.332Z,9.35
2023-04-18T08:30:19.734Z,8.10
2023-04-18T08:32:46.988Z,8.05
2023-04-18T08:35:14.361Z,7.95
2023-04-18T08:37:41.638Z,8.35
2023-04-18T08:40:09.237Z,7.90
2023-04-18T08:42:38.242Z,7.55
2023-04-18T08:45:05.497Z,7.13
2023-04-18T08:47:32.894Z,7.28
2023-04-18T08:50:00.212Z,7.20
2023-04-18T08:52:27.439Z,7.13
2023-04-18T08:54:54.666Z,6.35
2023-04-18T08:57:27.017Z,6.07
2023-04-18T08:59:54.461Z,6.20
2023-04-18T09:02:28.591Z,6.47
2023-04-18T09:04:56.127Z,6.00
2023-04-18T09:07:23.334Z,6.15
2023-04-18T09:09:50.895Z,6.00
2023-04-18T09:12:18.408Z,6.95
2023-04-18T09:14:46.785Z,5.32
2023-04-18T09:17:14.450Z,5.57
2023-04-18T09:19:42.362Z,5.82
2023-04-18T09:22:09.985Z,5.55
2023-04-18T09:24:37.207Z,5.20
2023-04-18T09:27:04.451Z,5.43
2023-04-18T09:29:32.313Z,5.00
2023-04-18T09:32:02.537Z,5.10
2023-04-18T09:34:29.868Z,4.57
2023-04-18T09:36:57.103Z,4.65
2023-04-18T09:39:24.351Z,4.05
2023-04-18T09:41:51.476Z,3.83
2023-04-18T09:44:20.398Z,4.03
2023-04-18T09:46:50.014Z,4.13
2023-04-18T09:49:17.879Z,4.78
2023-04-18T09:51:46.246Z,4.35
2023-04-18T09:54:13.789Z,4.32
2023-04-18T09:56:41.114Z,4.28
2023-04-18T09:59:08.827Z,5.78
2023-04-18T10:01:36.174Z,4.75
2023-04-18T10:04:04.392Z,4.55
2023-04-18T10:06:33.476Z,4.55
2023-04-18T10:09:00.820Z,4.85
2023-04-18T10:11:28.101Z,3.70
2023-04-18T10:13:55.363Z,4.88
2023-04-18T10:16:22.616Z,4.43
2023-04-18T10:18:50.334Z,4.05
2023-04-18T10:21:17.595Z,3.92
2023-04-18T10:23:48.799Z,3.88
2023-04-18T10:26:16.219Z,4.45
2023-04-18T10:28:43.440Z,3.08
2023-04-18T10:31:10.775Z,3.90
2023-04-18T10:33:41.975Z,3.78
2023-04-18T10:36:09.627Z,3.25
2023-04-18T10:38:38.848Z,3.35
2023-04-18T10:41:06.102Z,3.00
2023-04-18T10:43:33.317Z,3.55
2023-04-18T10:46:00.658Z,2.72
2023-04-18T10:48:30.150Z,2.72
2023-04-18T10:50:57.373Z,2.92
2023-04-18T10:53:24.634Z,2.58
2023-04-18T10:55:51.901Z,2.70
2023-04-18T10:58:19.115Z,2.80
2023-04-18T11:00:46.430Z,3.10
2023-04-18T11:03:14.018Z,2.50
2023-04-18T11:05:41.489Z,2.17
2023-04-18T11:08:09.236Z,2.53
2023-04-18T11:10:36.568Z,2.38
2023-04-18T11:13:05.515Z,2.80
2023-04-18T11:15:32.825Z,2.53
2023-04-18T11:18:00.150Z,2.80
2023-04-18T11:20:27.509Z,2.72
2023-04-18T11:22:54.731Z,2.55
2023-04-18T11:25:25.180Z,2.53
2023-04-18T11:27:52.566Z,2.58
2023-04-18T11:30:19.834Z,3.22
2023-04-18T11:32:47.640Z,3.30
2023-04-18T11:35:14.837Z,3.15
2023-04-18T11:37:42.107Z,3.63
2023-04-18T11:40:09.424Z,3.20
2023-04-18T11:42:36.721Z,4.68
2023-04-18T11:45:04.015Z,3.97
2023-04-18T11:47:31.798Z,4.13
2023-04-18T11:49:58.998Z,4.22
2023-04-18T11:52:26.283Z,3.63
2023-04-18T11:54:53.504Z,4.63
2023-04-18T11:57:21.104Z,4.03
2023-04-18T11:59:48.271Z,4.82
2023-04-18T12:02:17.056Z,4.07
2023-04-18T12:04:44.755Z,4.20
2023-04-18T12:07:12.042Z,4.07
2023-04-18T12:09:48.370Z,6.32
2023-04-18T12:12:16.605Z,4.68
2023-04-18T12:14:44.857Z,4.13
2023-04-18T12:17:12.217Z,4.50
2023-04-18T12:19:39.451Z,4.35
2023-04-18T12:22:07.656Z,3.80
2023-04-18T12:24:36.224Z,4.68
2023-04-18T12:27:03.494Z,4.45
2023-04-18T12:29:30.735Z,4.07
2023-04-18T12:31:58.172Z,4.72
2023-04-18T12:34:25.504Z,4.88
2023-04-18T12:36:53.920Z,3.95
2023-04-18T12:39:21.157Z,5.20
2023-04-18T12:41:49.790Z,8.77
2023-04-18T12:44:17.743Z,4.47
2023-04-18T12:46:45.071Z,4.45
2023-04-18T12:49:12.312Z,4.22
2023-04-18T12:51:40.606Z,4.65
2023-04-18T12:54:08.016Z,4.28
2023-04-18T12:56:35.576Z,4.35
2023-04-18T13:46:07.186Z,3.33
2023-04-18T13:48:34.799Z,2.88
2023-04-18T13:51:02.459Z,2.97
2023-04-18T13:53:31.072Z,3.13
2023-04-18T13:55:59.212Z,2.90
2023-04-18T13:58:26.694Z,2.92
2023-04-18T14:00:56.469Z,3.15
2023-04-18T14:03:24.526Z,2.85
2023-04-18T14:05:51.922Z,2.58
2023-04-18T14:08:19.292Z,2.80
2023-04-18T14:10:46.539Z,3.35
2023-04-18T14:13:14.006Z,2.53
2023-04-18T14:15:41.282Z,2.50
2023-04-18T14:18:08.672Z,2.20
2023-04-18T14:20:35.957Z,2.45
2023-04-18T14:23:03.301Z,2.63
2023-04-18T14:25:30.531Z,2.60
2023-04-18T14:27:57.911Z,2.67
2023-04-18T14:30:25.282Z,2.92
2023-04-18T16:21:09.036Z,7.45
2023-04-18T16:23:36.390Z,7.60
2023-04-18T16:26:03.645Z,8.00
2023-04-18T16:28:30.946Z,8.05
2023-04-18T16:30:58.216Z,7.97
2023-04-18T16:33:26.170Z,7.57
2023-04-18T16:35:53.586Z,7.80
2023-04-18T16:40:50.827Z,7.65
